Terminal Aerodrome Forecast
Issued by NWS

Home | Current Version | Previous Version | Text Only | Print | Product List | Glossary On
Versions: 1 2 3 4 5 6 7 8 9 10 11 12 13 14
000
FTUS46 KSEW 242300
TAFBFI
TAF
KBFI 242331Z 2500/2524 16008KT P6SM SCT009 BKN012 OVC022
     FM250300 15003KT P6SM SCT012 OVC025
     FM250900 14003KT P6SM SCT040 BKN200
      TEMPO 2510/2514 4SM BR BKN007
     FM251800 14002KT P6SM SCT250=

USA.gov is the U.S. government's official web portal to all federal, state and local government web resources and services.